Time;durP1;ratioP1;P1;durP2;ratioP2;P2;SDS_P1;SDS_P2;PMS_P1;PMS_P2;Temp;Humidity;BMP_temperature;BMP_pressure;BME280_temperature;BME280_humidity;BME280_pressure;Samples;Min_cycle;Max_cycle;Signal;HPM_P1;HPM_P2
2021/01/31 00:02:00;;;;;;;20.40;11.77;;;-2.30;99.90;;;;;;12456079;28;20148;-41
2021/01/31 00:08:02;;;;;;;22.58;11.98;;;-2.50;99.90;;;;;;12460542;28;20052;-41
2021/01/31 00:14:03;;;;;;;24.38;13.80;;;-2.60;99.90;;;;;;12454407;28;20053;-41
2021/01/31 00:20:05;;;;;;;24.05;12.43;;;-2.70;99.90;;;;;;12444374;28;20445;-41
2021/01/31 00:26:06;;;;;;;23.00;13.10;;;-2.80;99.90;;;;;;12459771;28;20369;-41
2021/01/31 00:32:08;;;;;;;23.33;12.73;;;-2.90;99.90;;;;;;12452946;28;20057;-41
2021/01/31 00:38:12;;;;;;;23.48;13.27;;;-3.00;99.90;;;;;;12444476;28;20049;-41
2021/01/31 00:44:13;;;;;;;21.67;11.93;;;-2.80;99.90;;;;;;12456355;28;20057;-41
2021/01/31 00:50:24;;;;;;;21.08;12.05;;;-2.80;99.90;;;;;;12451115;28;20546;-41
2021/01/31 00:56:26;;;;;;;20.20;10.40;;;-2.70;99.90;;;;;;12457984;28;20057;-41
2021/01/31 01:02:27;;;;;;;17.75;10.10;;;-2.70;99.90;;;;;;12443461;28;20646;-41
2021/01/31 01:08:28;;;;;;;16.83;9.45;;;-2.80;99.90;;;;;;12443984;28;20042;-41
2021/01/31 01:14:31;;;;;;;15.98;9.38;;;-2.90;99.90;;;;;;12434556;28;20053;-41
2021/01/31 01:20:32;;;;;;;15.07;8.15;;;-2.90;99.90;;;;;;12440093;28;20160;-41
2021/01/31 01:26:34;;;;;;;12.18;7.00;;;-2.90;99.90;;;;;;12445820;28;20449;-41
2021/01/31 01:32:37;;;;;;;14.82;8.23;;;-2.90;99.90;;;;;;12448869;28;20049;-41
2021/01/31 01:38:39;;;;;;;15.68;9.32;;;-3.00;99.90;;;;;;12433346;28;20131;-41
2021/01/31 01:44:40;;;;;;;13.20;7.18;;;-3.20;99.90;;;;;;12424257;28;20050;-41
2021/01/31 01:50:49;;;;;;;12.20;6.63;;;-3.30;99.90;;;;;;12442024;28;20049;-41
2021/01/31 01:56:58;;;;;;;14.52;7.25;;;-3.30;99.90;;;;;;12426423;28;20110;-41
2021/01/31 02:03:03;;;;;;;9.95;6.00;;;-3.30;99.90;;;;;;12429932;28;20061;-41
2021/01/31 02:09:06;;;;;;;12.30;6.60;;;-3.30;99.90;;;;;;12440584;28;20136;-41
2021/01/31 02:15:08;;;;;;;10.80;6.35;;;-3.40;99.90;;;;;;12440901;28;20087;-41
2021/01/31 02:21:34;;;;;;;10.68;6.10;;;-3.30;99.90;;;;;;12446151;28;20049;-41
2021/01/31 02:28:15;;;;;;;12.32;7.10;;;-3.30;99.90;;;;;;12405763;28;20053;-41
2021/01/31 02:34:51;;;;;;;11.30;6.45;;;-3.30;99.90;;;;;;12396774;28;20140;-40
2021/01/31 02:41:02;;;;;;;11.02;6.50;;;-3.60;99.90;;;;;;12405946;28;20165;-41
2021/01/31 02:47:11;;;;;;;12.32;6.88;;;-3.60;99.90;;;;;;12426982;28;20099;-41
2021/01/31 02:53:20;;;;;;;14.07;6.82;;;-3.40;99.90;;;;;;12431391;28;20596;-41
2021/01/31 02:59:33;;;;;;;12.75;6.53;;;-3.50;99.90;;;;;;12427714;28;20151;-41
2021/01/31 03:05:47;;;;;;;13.25;7.13;;;-3.50;99.90;;;;;;12413735;28;20095;-41
2021/01/31 03:11:57;;;;;;;11.98;6.45;;;-3.50;99.90;;;;;;12434597;28;20111;-41
2021/01/31 03:18:07;;;;;;;11.43;6.43;;;-3.70;99.90;;;;;;12432089;28;20037;-41
2021/01/31 03:24:11;;;;;;;9.85;5.88;;;-3.70;99.90;;;;;;12439110;28;20053;-41
2021/01/31 03:30:14;;;;;;;11.10;6.10;;;-3.70;99.90;;;;;;12446147;28;20106;-41
2021/01/31 03:36:16;;;;;;;13.68;7.32;;;-3.80;99.90;;;;;;12443980;28;20975;-41
2021/01/31 03:42:18;;;;;;;12.23;7.05;;;-3.70;99.90;;;;;;12440854;28;20053;-41
2021/01/31 03:48:24;;;;;;;10.68;6.35;;;-3.90;99.90;;;;;;12451150;28;20110;-41
2021/01/31 03:54:26;;;;;;;11.02;5.90;;;-3.90;99.90;;;;;;12451058;28;20042;-41
2021/01/31 04:00:34;;;;;;;10.27;6.40;;;-3.90;99.90;;;;;;12434927;28;20065;-41
2021/01/31 04:06:38;;;;;;;12.07;6.63;;;-3.90;99.90;;;;;;12429445;28;20421;-41
2021/01/31 04:12:42;;;;;;;13.10;7.03;;;-3.90;99.90;;;;;;12402502;28;20148;-41
2021/01/31 04:18:43;;;;;;;10.43;5.82;;;-3.90;99.90;;;;;;12421564;28;20100;-41
2021/01/31 04:24:46;;;;;;;14.63;7.03;;;-3.90;99.90;;;;;;12439871;28;20745;-41
2021/01/31 04:30:52;;;;;;;13.55;7.30;;;-4.00;99.90;;;;;;12436128;28;20551;-40
2021/01/31 04:36:53;;;;;;;12.40;7.03;;;-3.80;99.90;;;;;;12453480;28;20045;-41
2021/01/31 04:42:55;;;;;;;13.15;7.10;;;-4.00;99.90;;;;;;12448811;28;20073;-41
2021/01/31 04:49:25;;;;;;;11.25;6.70;;;-4.10;99.90;;;;;;12451711;28;20585;-41
2021/01/31 04:55:58;;;;;;;11.68;6.40;;;-4.00;99.90;;;;;;12451612;28;20041;-41
2021/01/31 05:02:06;;;;;;;12.10;6.57;;;-4.10;99.90;;;;;;12452248;28;20505;-41
2021/01/31 05:08:25;;;;;;;17.25;7.60;;;-4.10;99.90;;;;;;12457434;28;20087;-42
2021/01/31 05:14:39;;;;;;;14.15;7.50;;;-4.10;99.90;;;;;;12451586;28;20077;-41
2021/01/31 05:20:41;;;;;;;15.80;7.65;;;-4.10;99.90;;;;;;12455291;28;20132;-41
2021/01/31 05:26:49;;;;;;;15.35;8.02;;;-4.00;99.90;;;;;;12452324;28;20168;-41
2021/01/31 05:33:15;;;;;;;12.77;7.25;;;-3.90;99.90;;;;;;12453394;28;20164;-41
2021/01/31 05:39:36;;;;;;;14.68;7.82;;;-4.20;99.90;;;;;;12451274;28;20069;-41
2021/01/31 05:45:41;;;;;;;12.57;7.15;;;-4.30;99.90;;;;;;12452714;28;20079;-41
2021/01/31 05:51:45;;;;;;;13.27;7.22;;;-4.20;99.90;;;;;;12447695;28;20103;-41
2021/01/31 05:57:46;;;;;;;14.65;7.18;;;-4.40;99.90;;;;;;12429660;28;20140;-40
2021/01/31 06:03:47;;;;;;;13.27;7.28;;;-4.40;99.90;;;;;;12455152;28;20041;-41
2021/01/31 06:09:51;;;;;;;16.13;8.07;;;-4.40;99.90;;;;;;12445278;28;20084;-41
2021/01/31 06:16:01;;;;;;;13.85;7.50;;;-4.40;99.90;;;;;;12446470;28;20049;-41
2021/01/31 06:22:06;;;;;;;13.80;7.28;;;-4.50;99.90;;;;;;12431029;28;20139;-41
2021/01/31 06:28:10;;;;;;;18.00;8.07;;;-4.50;99.90;;;;;;12449197;28;20092;-41
2021/01/31 06:34:12;;;;;;;13.52;6.32;;;-4.50;99.90;;;;;;12437574;28;20064;-41
2021/01/31 06:40:48;;;;;;;14.25;7.70;;;-4.50;99.90;;;;;;12438148;28;20046;-41
2021/01/31 06:47:07;;;;;;;17.73;8.57;;;-4.60;99.90;;;;;;12442854;28;20054;-41
2021/01/31 06:53:41;;;;;;;15.10;7.95;;;-4.60;99.90;;;;;;12450128;28;20407;-41
2021/01/31 07:00:07;;;;;;;20.20;9.60;;;-4.60;99.90;;;;;;12436224;28;20095;-41
2021/01/31 07:06:46;;;;;;;18.45;8.73;;;-4.40;99.90;;;;;;12440160;28;20056;-41
2021/01/31 07:13:03;;;;;;;14.88;8.05;;;-4.50;99.90;;;;;;12442200;28;20720;-41
2021/01/31 07:19:16;;;;;;;18.98;8.75;;;-4.60;99.90;;;;;;12446055;28;20144;-41
2021/01/31 07:25:34;;;;;;;17.95;9.32;;;-4.60;99.90;;;;;;12443501;28;20045;-41
2021/01/31 07:31:47;;;;;;;19.75;9.50;;;-4.60;99.90;;;;;;12441976;28;20073;-41
2021/01/31 07:37:53;;;;;;;17.50;9.70;;;-4.50;99.90;;;;;;12451676;28;20053;-41
2021/01/31 07:44:03;;;;;;;19.02;9.85;;;-4.40;99.90;;;;;;12419988;28;20543;-41
2021/01/31 07:50:04;;;;;;;17.55;9.57;;;-4.30;99.90;;;;;;12451762;28;20041;-40
2021/01/31 07:56:29;;;;;;;18.65;9.88;;;-4.30;99.90;;;;;;12439221;28;20054;-41
2021/01/31 08:02:35;;;;;;;;;;;-4.30;99.90;;;;;;12442139;28;20133;-41
2021/01/31 08:08:43;;;;;;;21.33;10.20;;;-4.20;99.90;;;;;;12434649;28;19970;-41
2021/01/31 08:15:09;;;;;;;22.27;11.70;;;-4.00;99.90;;;;;;12439789;28;20494;-41
2021/01/31 08:21:30;;;;;;;;;;;-3.70;99.90;;;;;;12434887;28;20045;-41
2021/01/31 08:27:37;;;;;;;24.23;11.90;;;-3.50;99.90;;;;;;12440550;28;19952;-41
2021/01/31 08:33:40;;;;;;;24.23;12.48;;;-3.40;99.90;;;;;;12443700;28;20048;-41
2021/01/31 08:39:49;;;;;;;22.88;12.45;;;-3.10;99.90;;;;;;12443827;28;20103;-41
2021/01/31 08:45:51;;;;;;;21.27;11.85;;;-2.80;99.90;;;;;;12451807;28;20115;-41
2021/01/31 08:52:08;;;;;;;23.13;12.52;;;-2.60;99.90;;;;;;12457707;28;20045;-41
2021/01/31 08:58:09;;;;;;;22.05;12.23;;;-2.40;99.90;;;;;;12431323;28;20053;-41
2021/01/31 09:04:14;;;;;;;21.75;12.68;;;-2.10;99.90;;;;;;12440912;28;20087;-42
2021/01/31 09:10:40;;;;;;;17.77;10.60;;;-1.40;99.90;;;;;;12438626;28;20057;-41
2021/01/31 09:16:41;;;;;;;17.05;9.88;;;-1.40;99.90;;;;;;12440404;28;20487;-41
2021/01/31 09:22:49;;;;;;;16.55;10.48;;;-1.50;99.90;;;;;;12438525;28;20068;-41
2021/01/31 09:28:50;;;;;;;19.27;11.30;;;-1.50;99.90;;;;;;12449954;28;20094;-41
2021/01/31 09:34:54;;;;;;;15.73;9.98;;;-1.60;99.90;;;;;;12454542;28;20351;-42
2021/01/31 09:40:57;;;;;;;18.65;11.18;;;-1.60;99.90;;;;;;12453657;28;20094;-41
2021/01/31 09:46:59;;;;;;;14.93;9.48;;;-1.60;99.90;;;;;;12443740;28;20071;-41
2021/01/31 09:53:01;;;;;;;16.60;11.32;;;-1.50;99.90;;;;;;12453209;28;20088;-41
2021/01/31 09:59:16;;;;;;;17.20;10.65;;;-1.20;99.90;;;;;;12445728;28;20115;-41
2021/01/31 10:05:17;;;;;;;15.77;9.63;;;-1.10;99.90;;;;;;12442229;28;20049;-41
2021/01/31 10:11:24;;;;;;;14.40;9.43;;;-0.80;99.90;;;;;;12446945;28;21244;-42
2021/01/31 10:17:28;;;;;;;15.00;10.07;;;-0.50;99.90;;;;;;12435500;28;20107;-41
2021/01/31 10:23:31;;;;;;;16.13;10.32;;;-0.20;99.90;;;;;;12446521;28;20053;-41
2021/01/31 10:29:33;;;;;;;16.02;10.32;;;0.20;99.90;;;;;;12444712;28;20641;-41
2021/01/31 10:35:39;;;;;;;15.80;9.90;;;0.50;99.90;;;;;;12446241;28;20077;-42
2021/01/31 10:41:42;;;;;;;16.23;10.43;;;0.60;99.90;;;;;;12447497;28;20088;-42
2021/01/31 10:47:45;;;;;;;19.20;11.48;;;0.50;99.90;;;;;;12455599;28;20049;-42
2021/01/31 10:53:46;;;;;;;16.92;10.82;;;0.70;99.90;;;;;;12452872;28;20144;-42
2021/01/31 10:59:48;;;;;;;13.70;9.20;;;1.00;99.90;;;;;;12437724;28;20128;-42
2021/01/31 11:05:49;;;;;;;12.38;8.30;;;0.80;99.90;;;;;;12449814;28;20049;-42
2021/01/31 11:11:50;;;;;;;14.50;10.07;;;0.60;99.90;;;;;;12442996;28;20219;-42
2021/01/31 11:17:52;;;;;;;13.40;9.52;;;1.10;99.90;;;;;;12443618;28;20651;-42
2021/01/31 11:23:54;;;;;;;16.15;10.13;;;1.80;99.90;;;;;;12443904;28;20136;-42
2021/01/31 11:29:56;;;;;;;14.57;9.75;;;1.90;99.90;;;;;;12436198;28;20772;-42
2021/01/31 11:35:57;;;;;;;13.80;9.45;;;2.00;99.90;;;;;;12438810;28;20049;-42
2021/01/31 11:41:59;;;;;;;15.48;9.95;;;2.00;99.90;;;;;;12434558;28;21349;-42
2021/01/31 11:48:01;;;;;;;12.77;8.85;;;2.10;99.90;;;;;;12443851;28;20481;-42
2021/01/31 11:54:02;;;;;;;15.15;9.38;;;2.10;99.90;;;;;;12454376;28;20466;-42
2021/01/31 12:00:09;;;;;;;14.57;9.38;;;1.90;99.90;;;;;;12434350;28;20057;-42
2021/01/31 12:06:11;;;;;;;12.75;9.15;;;1.90;99.90;;;;;;12434253;28;20088;-41
2021/01/31 12:12:13;;;;;;;23.10;10.38;;;1.70;99.90;;;;;;12425495;28;20053;-42
2021/01/31 12:18:15;;;;;;;12.90;8.70;;;1.90;99.90;;;;;;12441878;28;20545;-42
2021/01/31 12:24:17;;;;;;;13.82;9.30;;;1.80;99.90;;;;;;12439107;28;20045;-42
2021/01/31 12:30:21;;;;;;;13.43;8.52;;;1.80;99.90;;;;;;12428403;28;20104;-42
2021/01/31 12:36:22;;;;;;;11.55;7.88;;;1.60;99.90;;;;;;12442820;28;20748;-42
2021/01/31 12:42:24;;;;;;;12.18;7.90;;;1.70;99.90;;;;;;12434688;28;20135;-42
2021/01/31 12:48:25;;;;;;;13.35;8.82;;;1.70;99.90;;;;;;12453681;28;20041;-42
2021/01/31 12:54:26;;;;;;;11.90;8.32;;;1.90;99.90;;;;;;12445388;28;20135;-42
2021/01/31 13:00:28;;;;;;;12.50;8.73;;;1.90;99.90;;;;;;12445326;28;20049;-42
2021/01/31 13:06:30;;;;;;;13.27;8.45;;;1.80;99.90;;;;;;12446643;28;20141;-42
2021/01/31 13:12:32;;;;;;;11.18;7.90;;;1.70;99.90;;;;;;12435594;28;20053;-42
2021/01/31 13:18:34;;;;;;;11.90;8.43;;;1.70;99.90;;;;;;12451047;28;20184;-42
2021/01/31 13:24:35;;;;;;;12.55;8.90;;;1.70;99.90;;;;;;12445229;28;20046;-42
2021/01/31 13:30:37;;;;;;;14.07;8.10;;;1.60;99.90;;;;;;12434120;28;20152;-42
2021/01/31 13:36:39;;;;;;;13.25;8.07;;;1.40;99.90;;;;;;12446540;28;20418;-42
2021/01/31 13:42:41;;;;;;;12.32;7.63;;;1.20;99.90;;;;;;12440854;28;21079;-42
2021/01/31 13:48:43;;;;;;;12.90;8.05;;;1.20;99.90;;;;;;12454133;28;20613;-42
2021/01/31 13:54:49;;;;;;;11.98;7.60;;;1.30;99.90;;;;;;12436811;28;20140;-42
2021/01/31 14:00:50;;;;;;;11.40;7.40;;;1.30;99.90;;;;;;12443963;28;20536;-42
2021/01/31 14:06:52;;;;;;;12.50;8.25;;;1.20;99.90;;;;;;12440358;28;20498;-42
2021/01/31 14:12:53;;;;;;;12.10;7.85;;;1.30;99.90;;;;;;12441122;28;20131;-42
2021/01/31 14:18:54;;;;;;;12.35;7.85;;;1.30;99.90;;;;;;12428395;28;20092;-42
2021/01/31 14:24:56;;;;;;;11.85;7.60;;;1.20;99.90;;;;;;12453793;28;20132;-42
2021/01/31 14:30:57;;;;;;;12.52;7.88;;;1.20;99.90;;;;;;12434109;28;20168;-42
2021/01/31 14:36:58;;;;;;;10.48;6.93;;;1.20;99.90;;;;;;12458763;28;20436;-42
2021/01/31 14:43:01;;;;;;;13.13;8.00;;;1.20;99.90;;;;;;12440925;28;20517;-42
2021/01/31 14:49:04;;;;;;;11.73;7.90;;;1.30;99.90;;;;;;12454452;28;20088;-42
2021/01/31 14:55:18;;;;;;;11.75;7.55;;;1.30;99.90;;;;;;12453687;28;20144;-41
2021/01/31 15:01:20;;;;;;;12.38;7.75;;;1.20;99.90;;;;;;12433381;28;20053;-44
2021/01/31 15:07:21;;;;;;;10.77;6.90;;;1.10;99.90;;;;;;12437903;28;22343;-40
2021/01/31 15:13:23;;;;;;;10.00;6.60;;;0.80;99.90;;;;;;12445185;28;20049;-41
2021/01/31 15:19:24;;;;;;;11.82;7.75;;;0.80;99.90;;;;;;12448038;28;20106;-41
2021/01/31 15:25:25;;;;;;;11.75;7.60;;;0.50;99.90;;;;;;12445942;28;20087;-41
2021/01/31 15:31:27;;;;;;;10.73;6.95;;;0.30;99.90;;;;;;12452579;28;20073;-41
2021/01/31 15:37:28;;;;;;;12.25;7.30;;;0.20;99.90;;;;;;12446002;28;20144;-41
2021/01/31 15:43:30;;;;;;;12.75;7.55;;;0.00;99.90;;;;;;12433599;28;20160;-41
2021/01/31 15:49:32;;;;;;;12.30;7.25;;;0.00;99.90;;;;;;12442124;28;20656;-41
2021/01/31 15:55:34;;;;;;;12.43;7.10;;;-0.10;99.90;;;;;;12448239;28;20045;-41
2021/01/31 16:01:36;;;;;;;12.07;7.28;;;-0.20;99.90;;;;;;12439329;28;20052;-39
2021/01/31 16:07:39;;;;;;;10.48;6.75;;;-0.20;99.90;;;;;;12445420;28;20593;-41
2021/01/31 16:13:43;;;;;;;11.23;7.20;;;-0.30;99.90;;;;;;12443392;28;20107;-41
2021/01/31 16:19:45;;;;;;;12.52;7.70;;;-0.50;99.90;;;;;;12444561;28;20064;-41
2021/01/31 16:25:47;;;;;;;11.98;7.70;;;-0.50;99.90;;;;;;12427474;28;20118;-41
2021/01/31 16:31:49;;;;;;;19.63;10.88;;;-0.60;99.90;;;;;;12447122;28;20144;-42
2021/01/31 16:37:50;;;;;;;13.30;7.85;;;-0.70;99.90;;;;;;12443388;28;20053;-41
2021/01/31 16:43:51;;;;;;;12.45;7.53;;;-0.80;99.90;;;;;;12459030;28;20722;-41
2021/01/31 16:49:55;;;;;;;13.27;8.57;;;-0.90;99.90;;;;;;12443394;28;20046;-41
2021/01/31 16:55:57;;;;;;;14.02;8.77;;;-1.00;99.90;;;;;;12451945;28;20050;-41
2021/01/31 17:01:58;;;;;;;13.77;8.27;;;-1.00;99.90;;;;;;12436014;28;20180;-42
2021/01/31 17:07:59;;;;;;;15.82;9.10;;;-1.10;99.90;;;;;;12440045;28;20053;-41
2021/01/31 17:14:01;;;;;;;16.60;9.63;;;-1.20;99.90;;;;;;12447512;28;20049;-41
2021/01/31 17:20:04;;;;;;;13.85;8.38;;;-1.20;99.90;;;;;;12447483;28;20052;-41
2021/01/31 17:26:06;;;;;;;14.57;8.27;;;-1.20;99.90;;;;;;12448189;28;20045;-41
2021/01/31 17:32:08;;;;;;;17.67;10.07;;;-1.20;99.90;;;;;;12438640;28;20061;-41
2021/01/31 17:38:11;;;;;;;17.25;9.85;;;-1.20;99.90;;;;;;12442336;28;20085;-41
2021/01/31 17:44:12;;;;;;;17.23;9.85;;;-1.30;99.90;;;;;;12442002;28;20045;-41
2021/01/31 17:50:17;;;;;;;18.48;10.38;;;-1.30;99.90;;;;;;12452413;28;20133;-41
2021/01/31 17:56:19;;;;;;;15.98;8.88;;;-1.30;99.90;;;;;;12454027;28;20569;-41
2021/01/31 18:02:20;;;;;;;13.90;8.43;;;-1.30;99.90;;;;;;12444543;28;20125;-41
2021/01/31 18:08:21;;;;;;;15.00;9.00;;;-1.50;99.90;;;;;;12455345;28;20733;-41
2021/01/31 18:14:23;;;;;;;15.15;9.50;;;-1.60;99.90;;;;;;12448483;28;20053;-41
2021/01/31 18:20:27;;;;;;;14.57;8.98;;;-1.60;99.90;;;;;;12447536;28;20132;-41
2021/01/31 18:26:30;;;;;;;15.60;9.52;;;-1.60;99.90;;;;;;12445530;28;20173;-41
2021/01/31 18:32:32;;;;;;;14.18;8.80;;;-1.70;99.90;;;;;;12444140;28;20053;-41
2021/01/31 18:38:33;;;;;;;15.00;9.27;;;-1.80;99.90;;;;;;12445227;28;20478;-41
2021/01/31 18:44:34;;;;;;;15.27;8.95;;;-1.80;99.90;;;;;;12444801;28;20045;-40
2021/01/31 18:50:36;;;;;;;17.02;9.20;;;-1.80;99.90;;;;;;12451719;28;20108;-41
2021/01/31 18:56:47;;;;;;;21.10;10.05;;;-1.90;99.90;;;;;;12436788;28;20141;-41
2021/01/31 19:02:49;;;;;;;21.83;12.07;;;-2.00;99.90;;;;;;12439151;28;20791;-41
2021/01/31 19:08:50;;;;;;;23.48;13.30;;;-2.20;99.90;;;;;;12438022;28;20057;-41
2021/01/31 19:14:51;;;;;;;23.80;13.43;;;-2.20;99.90;;;;;;12445397;28;20132;-41
2021/01/31 19:20:54;;;;;;;21.23;12.52;;;-2.20;99.90;;;;;;12417451;28;20045;-41
2021/01/31 19:26:55;;;;;;;23.85;12.68;;;-2.30;99.90;;;;;;12444370;28;20106;-41
2021/01/31 19:32:57;;;;;;;22.50;13.05;;;-2.40;99.90;;;;;;12423167;28;20053;-41
2021/01/31 19:38:58;;;;;;;22.17;12.27;;;-2.40;99.90;;;;;;12441098;28;20053;-41
2021/01/31 19:45:00;;;;;;;17.50;10.10;;;-2.30;99.90;;;;;;12439549;28;20495;-41
2021/01/31 19:51:02;;;;;;;16.45;8.43;;;-2.30;99.90;;;;;;12441819;28;20056;-41
2021/01/31 19:57:04;;;;;;;15.05;8.95;;;-2.20;99.90;;;;;;12447237;28;20054;-41
2021/01/31 20:03:06;;;;;;;14.02;8.57;;;-2.30;99.90;;;;;;12443144;28;20056;-41
2021/01/31 20:09:07;;;;;;;17.13;8.75;;;-2.30;99.90;;;;;;12450524;28;20060;-41
2021/01/31 20:15:09;;;;;;;21.17;9.68;;;-2.30;99.90;;;;;;12451390;28;20482;-41
2021/01/31 20:21:11;;;;;;;19.35;10.57;;;-2.20;99.90;;;;;;12456405;28;20061;-41
2021/01/31 20:27:13;;;;;;;19.40;8.88;;;-2.20;99.90;;;;;;12458169;28;20092;-41
2021/01/31 20:33:14;;;;;;;19.23;10.82;;;-2.20;99.90;;;;;;12464184;28;20053;-41
2021/01/31 20:39:16;;;;;;;22.63;12.40;;;-2.30;99.90;;;;;;12454598;28;20501;-41
2021/01/31 20:45:21;;;;;;;17.45;10.13;;;-2.40;99.90;;;;;;12460653;28;20045;-41
2021/01/31 20:51:23;;;;;;;16.92;8.90;;;-2.40;99.90;;;;;;12456883;28;20421;-41
2021/01/31 20:57:24;;;;;;;20.52;10.30;;;-2.40;99.90;;;;;;12460483;28;20053;-41
2021/01/31 21:03:25;;;;;;;21.02;11.45;;;-2.40;99.90;;;;;;12455138;28;20046;-40
2021/01/31 21:09:27;;;;;;;20.08;11.73;;;-2.50;99.90;;;;;;12460133;28;20054;-41
2021/01/31 21:15:28;;;;;;;20.92;11.23;;;-2.50;99.90;;;;;;12451785;28;20053;-41
2021/01/31 21:21:29;;;;;;;20.88;12.13;;;-2.50;99.90;;;;;;12461133;28;20436;-41
2021/01/31 21:27:33;;;;;;;21.52;12.82;;;-2.50;99.90;;;;;;12453403;28;20054;-40
2021/01/31 21:33:34;;;;;;;22.13;13.18;;;-2.60;99.90;;;;;;12454706;28;20363;-40
2021/01/31 21:39:36;;;;;;;21.60;12.32;;;-2.80;99.90;;;;;;12450566;28;20049;-41
2021/01/31 21:45:37;;;;;;;22.50;12.57;;;-2.90;99.90;;;;;;12456096;28;20049;-41
2021/01/31 21:51:38;;;;;;;24.70;12.70;;;-2.90;99.90;;;;;;12452822;28;20095;-41
2021/01/31 21:57:39;;;;;;;21.75;12.73;;;-2.90;99.90;;;;;;12462436;28;20102;-41
2021/01/31 22:03:41;;;;;;;25.77;13.75;;;-3.00;99.90;;;;;;12439569;28;20083;-41
2021/01/31 22:09:42;;;;;;;25.63;13.88;;;-2.90;99.90;;;;;;12442200;28;20049;-41
2021/01/31 22:15:43;;;;;;;23.58;12.35;;;-2.80;99.90;;;;;;12445908;28;20460;-41
2021/01/31 22:21:45;;;;;;;23.40;11.98;;;-2.60;99.90;;;;;;12452297;28;20117;-41
2021/01/31 22:27:46;;;;;;;25.80;12.18;;;-2.50;99.90;;;;;;12449613;28;20456;-41
2021/01/31 22:33:47;;;;;;;23.52;12.55;;;-2.40;99.90;;;;;;12448341;28;20045;-41
2021/01/31 22:39:48;;;;;;;22.63;12.13;;;-2.30;99.90;;;;;;12446770;28;20094;-41
2021/01/31 22:45:50;;;;;;;24.25;12.07;;;-2.20;99.90;;;;;;12444671;28;20646;-41
2021/01/31 22:51:51;;;;;;;24.75;13.65;;;-2.10;99.90;;;;;;12453781;28;20045;-41
2021/01/31 22:57:53;;;;;;;24.15;13.20;;;-2.10;99.90;;;;;;12451002;28;20057;-41
2021/01/31 23:03:54;;;;;;;24.88;12.88;;;-2.10;99.90;;;;;;12448464;28;20556;-41
2021/01/31 23:09:56;;;;;;;24.40;12.25;;;-2.10;99.90;;;;;;12449408;28;20132;-41
2021/01/31 23:15:57;;;;;;;22.65;12.18;;;-2.10;99.90;;;;;;12442664;28;20050;-41
2021/01/31 23:21:58;;;;;;;22.08;11.88;;;-2.10;99.90;;;;;;12449457;28;20053;-41
2021/01/31 23:28:00;;;;;;;22.30;11.85;;;-2.10;99.90;;;;;;12447432;28;20130;-41
2021/01/31 23:34:02;;;;;;;24.15;12.45;;;-2.20;99.90;;;;;;12436226;28;20116;-41
2021/01/31 23:40:06;;;;;;;24.08;12.90;;;-2.40;99.90;;;;;;12445310;28;20057;-41
2021/01/31 23:46:07;;;;;;;28.33;13.33;;;-2.40;99.90;;;;;;12435154;28;20126;-41
2021/01/31 23:52:09;;;;;;;26.15;13.75;;;-2.40;99.90;;;;;;12442707;28;20690;-41
2021/01/31 23:58:10;;;;;;;24.77;13.75;;;-2.40;99.90;;;;;;12433779;28;20041;-41
